Hovedside
METAR-TAF:

METAR-TAF

Lufthavner :

Cairns, Australia

breddegrad: 16-53S, lengdegrad: 145-45E, høyde over havet: 3 m

Gjeldene værobservasjon

Denne rapporten ble laget for 31 minutter siden, klokken 06:30 UTC
Vind 13 kt fra Sørøst
Temperatur 28°C
Luftfuktighet 37%
Trykk 1010 hPa
Sikt 10 km eller mer
Få skyer i en høyde av 2500 ft

METAR: YBCS 250630Z 13013KT 9999 FEW025 28/12 Q1010 NOSIG

Tid: 17:01 (07:01 UTC)

Varsel

Denne rapporten ble laget for 1 time og 50 minutter siden, klokken 05:11 UTC
Varsel gyldig fra 25. klokken 06 UTC til 26. klokken 06 UTC
Vind 13 kt fra Øst-sørøst
Sikt 10 km eller mer
Få skyer i en høyde av 3500 ft
Fra 25. klokken 0800 UTC
Vind 8 kt fra Sør-sørøst
Sikt 10 km eller mer
Få skyer i en høyde av 2500 ft
Fra 26. klokken 0000 UTC
Vind 13 kt fra Øst-sørøst
Sikt 10 km eller mer
Få skyer i en høyde av 3500 ft

TAF: YBCS 250511Z 2506/2606 11013KT 9999 FEW035 FM250800 16008KT 9999 FEW025 FM260000 11013KT 9999 FEW035

Værobservasjoner og værvarsel for over 4000 flyplasser (METAR- og TAF-rapporter).

Tilgjengelige stasjoner er representert av de røde og gule prikkene på kartet.

Hold musepekeren over prikken for å se navnet på stasjonen.

Klikk så for å se værobservasjoner og -varsler.

For å forandre kartet kan du klikke på den grønne knappen med svart kryss for å zoome inn, på den grønne knappen med strek for å zoome ut, eller på de grønne pilene for å se tilstøtende kart.


METAR-TAF: